LEGE/GRO METAR and TAF weather

Enter ICAO airport designator
Station Type Date Time Source
LEGE METAR 2020/04/01 23:30 UTC NOAA

LEGE 012330Z 01005KT 340V050 9999 OVC018 08/06 Q1014


Station Type Date Time Source
LEGE Decoded METAR 2020/04/01 23:30 UTC NOAA

Gerona / Costa Brava, Spain (LEGE) 41-54N 002-46E 129M
Apr 01, 2020 - 07:30 PM EDT / 2020.04.01 2330 UTC
Wind: from the N (010 degrees) at 6 MPH (5 KT) (direction variable):0
Visibility: greater than 7 mile(s):0
Sky conditions: overcast
Temperature: 46 F (8 C)
Dew Point: 42 F (6 C)
Relative Humidity: 87%
Pressure (altimeter): 29.94 in. Hg (1014 hPa)
ob: LEGE 012330Z 01005KT 340V050 9999 OVC018 08/06 Q1014
cycle: 23

Station Type Date Time Source
LEGE TAF 2020/04/01 18:27 UTC NOAA

TAF LEGE 011700Z 0118/0218 01010KT 6000 BKN010 TX13/0212Z TN08/0206Z
TEMPO 0118/0206 4000 RA SHRA BKN003 FEW009TCU PROB40
TEMPO 0120/0206 2000 BR BKN003

Example: see airport list